createdAt,value
2018-01-13T00:00:39.652Z,93.00
2018-01-13T00:03:06.491Z,93.00
2018-01-13T00:05:33.341Z,93.20
2018-01-13T00:08:00.076Z,93.20
2018-01-13T00:10:26.917Z,93.20
2018-01-13T00:12:54.565Z,93.20
2018-01-13T00:15:21.524Z,93.10
2018-01-13T00:17:48.364Z,93.00
2018-01-13T00:20:15.106Z,92.90
2018-01-13T00:22:41.925Z,92.90
2018-01-13T00:25:08.689Z,92.90
2018-01-13T00:27:35.527Z,93.10
2018-01-13T00:30:02.473Z,93.20
2018-01-13T00:32:30.032Z,93.10
2018-01-13T00:34:56.770Z,93.00
2018-01-13T00:37:24.226Z,92.00
2018-01-13T00:39:51.274Z,92.00
2018-01-13T00:42:17.905Z,91.80
2018-01-13T00:44:44.635Z,91.90
2018-01-13T00:47:11.597Z,91.80
2018-01-13T00:49:38.539Z,92.00
2018-01-13T00:52:05.793Z,92.10
2018-01-13T00:54:33.968Z,92.70
2018-01-13T00:57:00.702Z,92.70
2018-01-13T00:59:27.312Z,93.10
2018-01-13T01:01:54.078Z,93.50
2018-01-13T01:04:20.819Z,93.50
2018-01-13T01:06:47.751Z,93.70
2018-01-13T01:09:15.326Z,94.00
2018-01-13T01:11:42.063Z,94.00
2018-01-13T01:14:08.697Z,94.10
2018-01-13T01:16:35.336Z,94.30
2018-01-13T01:19:02.896Z,94.20
2018-01-13T01:21:29.736Z,94.20
2018-01-13T01:23:56.576Z,94.30
2018-01-13T01:26:23.214Z,94.30
2018-01-13T01:28:49.854Z,94.30
2018-01-13T01:31:17.411Z,94.60
2018-01-13T01:33:45.583Z,94.70
2018-01-13T01:36:12.219Z,94.70
2018-01-13T01:38:38.755Z,94.80
2018-01-13T01:41:06.109Z,94.90
2018-01-13T01:43:33.054Z,95.00
2018-01-13T01:46:00.409Z,95.00
2018-01-13T01:48:27.150Z,95.00
2018-01-13T01:50:54.906Z,94.90
2018-01-13T01:53:22.263Z,94.80
2018-01-13T01:55:49.105Z,94.70
2018-01-13T01:58:15.743Z,94.70
2018-01-13T02:00:42.576Z,94.70
2018-01-13T02:03:09.324Z,94.90
2018-01-13T02:05:36.184Z,94.80
2018-01-13T02:08:02.906Z,94.80
2018-01-13T02:10:29.828Z,95.00
2018-01-13T02:12:56.489Z,95.00
2018-01-13T02:15:23.329Z,95.00
2018-01-13T02:17:50.073Z,95.10
2018-01-13T02:20:16.808Z,95.20
2018-01-13T02:22:43.959Z,95.30
2018-01-13T02:25:11.416Z,95.50
2018-01-13T02:27:39.590Z,95.50
2018-01-13T02:30:07.966Z,95.50
2018-01-13T02:32:34.896Z,95.50
2018-01-13T02:35:01.551Z,95.60
2018-01-13T02:37:28.344Z,95.60
2018-01-13T02:39:55.229Z,95.60
2018-01-13T02:42:21.865Z,95.50
2018-01-13T02:44:48.504Z,95.60
2018-01-13T02:47:16.573Z,95.70
2018-01-13T02:49:43.314Z,95.70
2018-01-13T02:52:10.673Z,95.60
2018-01-13T02:54:37.601Z,95.70
2018-01-13T02:57:04.351Z,95.70
2018-01-13T02:59:31.193Z,95.90
2018-01-13T03:01:57.829Z,95.90
2018-01-13T03:04:24.445Z,96.00
2018-01-13T03:06:53.379Z,96.10
2018-01-13T03:09:20.600Z,96.20
2018-01-13T03:11:47.132Z,96.20
2018-01-13T03:14:13.608Z,96.20
2018-01-13T03:16:40.064Z,96.20
2018-01-13T03:19:06.582Z,96.20
2018-01-13T03:21:33.049Z,96.00
2018-01-13T03:23:59.517Z,95.60
2018-01-13T03:26:26.053Z,95.30
2018-01-13T03:28:53.327Z,95.00
2018-01-13T03:31:20.604Z,94.60
2018-01-13T03:33:47.070Z,94.60
2018-01-13T03:36:13.516Z,94.40
2018-01-13T03:38:40.072Z,94.20
2018-01-13T03:41:07.314Z,94.20
2018-01-13T03:43:33.769Z,94.20
2018-01-13T03:46:01.816Z,94.00
2018-01-13T03:48:28.319Z,94.00
2018-01-13T03:50:54.809Z,93.90
2018-01-13T03:53:21.368Z,93.70
2018-01-13T03:55:48.641Z,93.60
2018-01-13T03:58:15.916Z,93.40
2018-01-13T04:00:43.193Z,93.30
2018-01-13T04:03:09.748Z,93.30
2018-01-13T04:05:36.307Z,93.20
2018-01-13T04:08:03.685Z,93.10
2018-01-13T04:10:31.961Z,93.10
2018-01-13T04:12:58.803Z,93.10
2018-01-13T04:15:25.544Z,93.10
2018-01-13T04:17:52.180Z,93.00
2018-01-13T04:20:19.118Z,92.90
2018-01-13T04:22:45.762Z,92.90
2018-01-13T04:25:12.808Z,93.00
2018-01-13T04:27:39.550Z,93.00
2018-01-13T04:30:06.371Z,93.20
2018-01-13T04:32:33.027Z,93.30
2018-01-13T04:34:59.769Z,93.30
2018-01-13T04:37:26.607Z,93.30
2018-01-13T04:39:53.350Z,93.40
2018-01-13T04:42:19.984Z,93.60
2018-01-13T04:44:47.628Z,93.80
2018-01-13T04:47:14.283Z,93.80
2018-01-13T04:49:40.906Z,93.90
2018-01-13T04:52:08.379Z,93.90
2018-01-13T04:54:35.817Z,94.10
2018-01-13T04:57:02.673Z,94.10
2018-01-13T04:59:29.311Z,94.30
2018-01-13T05:01:56.137Z,94.40
2018-01-13T05:04:23.098Z,94.50
2018-01-13T05:06:49.940Z,94.70
2018-01-13T05:09:16.678Z,94.80
2018-01-13T05:11:43.213Z,94.80
2018-01-13T05:14:09.945Z,94.80
2018-01-13T05:16:36.794Z,94.90
2018-01-13T05:19:03.943Z,95.00
2018-01-13T05:21:30.582Z,95.10
2018-01-13T05:23:57.423Z,95.00
2018-01-13T05:26:24.878Z,95.20
2018-01-13T05:28:51.720Z,95.10
2018-01-13T05:31:18.365Z,95.10
2018-01-13T05:33:45.097Z,95.20
2018-01-13T05:36:11.837Z,95.10
2018-01-13T05:38:39.191Z,95.10
2018-01-13T05:41:05.929Z,95.10
2018-01-13T05:43:32.873Z,95.10
2018-01-13T05:45:59.705Z,95.10
2018-01-13T05:48:27.786Z,95.20
2018-01-13T05:50:55.856Z,95.10
2018-01-13T05:53:22.494Z,95.10
2018-01-13T05:55:49.096Z,95.00
2018-01-13T05:58:15.667Z,95.00
2018-01-13T06:00:43.225Z,95.10
2018-01-13T06:03:09.967Z,95.20
2018-01-13T06:05:36.604Z,95.10
2018-01-13T06:08:03.540Z,95.10
2018-01-13T06:10:30.388Z,95.10
2018-01-13T06:12:57.230Z,95.20
2018-01-13T06:15:23.866Z,95.30
2018-01-13T06:17:50.595Z,95.60
2018-01-13T06:20:17.141Z,95.60
2018-01-13T06:22:43.864Z,95.60
2018-01-13T06:25:10.517Z,95.60
2018-01-13T06:27:37.440Z,95.60
2018-01-13T06:30:05.738Z,95.70
2018-01-13T06:32:33.296Z,95.70
2018-01-13T06:35:00.035Z,95.80
2018-01-13T06:37:26.775Z,95.80
2018-01-13T06:39:53.913Z,95.80
2018-01-13T06:42:20.562Z,95.80
2018-01-13T06:44:47.505Z,95.90
2018-01-13T06:47:14.146Z,95.90
2018-01-13T06:49:40.865Z,95.80
2018-01-13T06:52:07.622Z,95.80
2018-01-13T06:54:34.360Z,95.70
2018-01-13T06:57:00.998Z,95.60
2018-01-13T06:59:27.634Z,95.20
2018-01-13T07:01:54.375Z,95.10
2018-01-13T07:04:21.215Z,95.10
2018-01-13T07:06:47.954Z,95.00
2018-01-13T07:09:14.598Z,94.80
2018-01-13T07:11:41.230Z,94.80
2018-01-13T07:14:08.584Z,94.40
2018-01-13T07:16:35.208Z,94.40
2018-01-13T07:19:02.964Z,94.30
2018-01-13T07:21:29.702Z,94.20
2018-01-13T07:23:57.897Z,94.20
2018-01-13T07:26:24.637Z,94.50
2018-01-13T07:28:51.785Z,94.10
2018-01-13T07:31:18.530Z,94.10
2018-01-13T07:33:45.243Z,94.00
2018-01-13T07:36:12.004Z,93.80
2018-01-13T07:38:38.749Z,93.90
2018-01-13T07:41:05.482Z,93.90
2018-01-13T07:43:32.107Z,93.90
2018-01-13T07:45:59.167Z,94.20
2018-01-13T07:48:26.009Z,93.80
2018-01-13T07:50:52.645Z,94.10
2018-01-13T07:53:20.102Z,94.10
2018-01-13T07:55:46.841Z,94.10
2018-01-13T07:58:13.684Z,94.30
2018-01-13T08:00:40.409Z,94.70
2018-01-13T08:03:07.122Z,94.20
2018-01-13T08:05:33.905Z,94.10
2018-01-13T08:08:01.255Z,93.90
2018-01-13T08:10:28.611Z,93.90
2018-01-13T08:12:55.353Z,93.70
2018-01-13T08:15:21.985Z,93.80
2018-01-13T08:17:49.442Z,93.90
2018-01-13T08:20:16.082Z,93.80
2018-01-13T08:22:42.720Z,94.00
2018-01-13T08:25:09.359Z,94.30
2018-01-13T08:27:35.991Z,94.20
2018-01-13T08:30:02.633Z,94.20
2018-01-13T08:32:29.265Z,94.50
2018-01-13T08:34:55.799Z,94.10
2018-01-13T08:37:22.441Z,94.00
2018-01-13T08:39:49.802Z,93.70
2018-01-13T08:42:16.530Z,93.70
2018-01-13T08:44:43.166Z,93.60
2018-01-13T08:47:09.804Z,93.70
2018-01-13T08:49:37.159Z,93.70
2018-01-13T08:52:03.797Z,93.60
2018-01-13T08:54:30.431Z,93.50
2018-01-13T08:56:56.969Z,93.80
2018-01-13T08:59:23.705Z,93.70
2018-01-13T09:02:05.192Z,93.80
2018-01-13T09:04:31.726Z,93.80
2018-01-13T09:06:58.363Z,93.70
2018-01-13T09:09:25.103Z,93.60
2018-01-13T09:11:51.739Z,93.70
2018-01-13T09:14:19.199Z,93.70
2018-01-13T09:16:45.751Z,94.00
2018-01-13T09:19:12.469Z,93.80
2018-01-13T09:21:39.110Z,93.80
2018-01-13T09:24:06.358Z,93.70
2018-01-13T09:26:32.996Z,93.60
2018-01-13T09:28:59.635Z,93.60
2018-01-13T09:31:26.350Z,93.40
2018-01-13T09:33:53.111Z,93.10
2018-01-13T09:36:19.749Z,93.00
2018-01-13T09:38:46.591Z,92.80
2018-01-13T09:41:13.467Z,92.70
2018-01-13T09:43:43.962Z,92.70
2018-01-13T09:46:10.802Z,92.70
2018-01-13T09:48:37.544Z,92.70
2018-01-13T09:51:05.805Z,92.00
2018-01-13T09:53:32.641Z,91.90
2018-01-13T09:55:59.609Z,91.90
2018-01-13T09:58:26.658Z,92.10
2018-01-13T10:00:53.493Z,92.20
2018-01-13T10:03:20.163Z,92.10
2018-01-13T10:05:46.766Z,92.20
2018-01-13T10:08:14.119Z,92.30
2018-01-13T10:10:40.758Z,92.20
2018-01-13T10:13:07.496Z,92.20
2018-01-13T10:15:34.137Z,91.80
2018-01-13T10:18:01.487Z,91.80
2018-01-13T10:20:28.125Z,91.80
2018-01-13T10:22:54.762Z,91.70
2018-01-13T10:25:21.403Z,91.40
2018-01-13T10:27:48.036Z,91.60
2018-01-13T10:30:14.777Z,91.70
2018-01-13T10:32:42.438Z,91.10
2018-01-13T10:35:09.673Z,90.80
2018-01-13T10:37:37.851Z,90.70
2018-01-13T10:40:04.499Z,90.70
2018-01-13T10:42:31.237Z,90.80
2018-01-13T10:44:57.875Z,90.80
2018-01-13T10:47:24.410Z,90.70
2018-01-13T10:49:51.046Z,90.70
2018-01-13T10:52:17.888Z,90.50
2018-01-13T10:54:44.526Z,90.60
2018-01-13T10:57:11.163Z,90.60
2018-01-13T10:59:37.901Z,90.70
2018-01-13T11:02:04.641Z,90.60
2018-01-13T11:04:31.791Z,90.40
2018-01-13T11:06:58.529Z,90.50
2018-01-13T11:09:25.364Z,90.80
2018-01-13T11:11:52.317Z,90.70
2018-01-13T11:14:19.141Z,91.00
2018-01-13T11:16:45.695Z,90.90
2018-01-13T11:19:12.414Z,90.80
2018-01-13T11:21:41.344Z,91.00
2018-01-13T11:24:07.905Z,91.10
2018-01-13T11:26:35.146Z,91.40
2018-01-13T11:29:02.404Z,91.40
2018-01-13T11:31:28.898Z,91.40
2018-01-13T11:33:56.132Z,91.50
2018-01-13T11:36:22.608Z,91.50
2018-01-13T11:38:49.084Z,91.40
2018-01-13T11:41:16.541Z,91.50
2018-01-13T11:43:43.933Z,91.40
2018-01-13T11:46:10.590Z,91.40
2018-01-13T11:48:37.158Z,91.60
2018-01-13T11:51:03.858Z,91.50
2018-01-13T11:53:31.110Z,91.80
2018-01-13T11:55:57.748Z,91.80
2018-01-13T11:58:24.886Z,91.80
2018-01-13T12:00:51.402Z,92.00
2018-01-13T12:03:18.012Z,92.00
2018-01-13T12:05:44.549Z,91.80
2018-01-13T12:08:11.115Z,91.80
2018-01-13T12:10:37.653Z,91.80
2018-01-13T12:13:04.223Z,92.00
2018-01-13T12:15:30.728Z,92.00
2018-01-13T12:17:57.974Z,92.00
2018-01-13T12:20:24.462Z,92.00
2018-01-13T12:22:51.694Z,92.20
2018-01-13T12:25:18.265Z,92.20
2018-01-13T12:27:44.801Z,92.20
2018-01-13T12:30:11.284Z,92.20
2018-01-13T12:32:37.749Z,92.20
2018-01-13T12:35:04.252Z,92.10
2018-01-13T12:37:30.753Z,91.90
2018-01-13T12:39:57.206Z,92.00
2018-01-13T12:42:23.690Z,92.40
2018-01-13T12:44:50.926Z,92.10
2018-01-13T12:47:17.400Z,92.10
2018-01-13T12:49:43.873Z,92.10
2018-01-13T12:52:10.555Z,92.10
2018-01-13T12:54:37.780Z,91.90
2018-01-13T12:57:04.243Z,91.90
2018-01-13T12:59:30.687Z,92.00
2018-01-13T13:01:57.140Z,92.30
2018-01-13T13:04:23.612Z,92.30
2018-01-13T13:06:50.141Z,92.30
2018-01-13T13:09:16.607Z,92.20
2018-01-13T13:11:43.092Z,92.10
2018-01-13T13:14:09.653Z,91.90
2018-01-13T13:16:36.116Z,91.90
2018-01-13T13:19:02.621Z,92.00
2018-01-13T13:21:29.090Z,92.40
2018-01-13T13:23:55.580Z,91.90
2018-01-13T13:26:22.074Z,91.50
2018-01-13T13:28:48.619Z,91.40
2018-01-13T13:31:15.919Z,91.20
2018-01-13T13:33:42.467Z,91.20
2018-01-13T13:36:08.925Z,91.20
2018-01-13T13:38:35.404Z,90.90
2018-01-13T13:41:01.879Z,91.00
2018-01-13T13:43:29.120Z,91.20
2018-01-13T13:45:55.596Z,91.20
2018-01-13T13:48:22.068Z,91.60
2018-01-13T13:50:48.512Z,91.80
2018-01-13T14:05:32.276Z,90.90
2018-01-13T14:07:58.718Z,91.10
2018-01-13T14:10:25.180Z,91.60
2018-01-13T14:12:51.704Z,91.20
2018-01-13T14:15:18.184Z,91.00
2018-01-13T14:17:44.723Z,91.00
2018-01-13T14:20:11.208Z,91.00
2018-01-13T14:22:37.661Z,90.80
2018-01-13T14:25:04.153Z,90.50
2018-01-13T14:27:30.662Z,90.30
2018-01-13T14:29:57.178Z,90.00
2018-01-13T14:32:24.390Z,89.70
2018-01-13T14:34:50.880Z,89.70
2018-01-13T14:37:19.542Z,89.80
2018-01-13T14:39:46.045Z,89.80
2018-01-13T14:42:12.515Z,89.50
2018-01-13T14:44:38.983Z,90.00
2018-01-13T14:47:06.279Z,90.30
2018-01-13T14:49:32.769Z,90.20
2018-01-13T14:51:59.268Z,90.10
2018-01-13T14:54:26.500Z,90.30
2018-01-13T14:56:52.960Z,90.30
2018-01-13T14:59:19.437Z,90.50
2018-01-13T15:01:45.911Z,90.60
2018-01-13T15:04:13.127Z,90.80
2018-01-13T15:06:39.637Z,91.10
2018-01-13T15:09:06.084Z,91.00
2018-01-13T15:11:32.629Z,90.70
2018-01-13T15:13:59.078Z,90.40
2018-01-13T15:16:25.572Z,90.00
2018-01-13T15:18:52.853Z,90.00
2018-01-13T15:21:20.071Z,89.20
2018-01-13T15:23:46.543Z,89.20
2018-01-13T15:26:13.021Z,89.10
2018-01-13T15:28:39.495Z,88.80
2018-01-13T15:31:06.733Z,88.20
2018-01-13T15:33:33.219Z,88.80
2018-01-13T15:36:00.415Z,88.50
2018-01-13T15:38:27.336Z,88.30
2018-01-13T15:40:53.812Z,88.30
2018-01-13T15:43:20.293Z,88.50
2018-01-13T15:45:46.775Z,88.20
2018-01-13T15:48:13.296Z,87.70
2018-01-13T15:50:40.513Z,87.40
2018-01-13T15:53:07.010Z,87.30
2018-01-13T15:55:33.473Z,87.30
2018-01-13T15:58:00.719Z,86.10
2018-01-13T16:00:27.186Z,86.10
2018-01-13T16:02:53.673Z,86.60
2018-01-13T16:05:20.866Z,85.60
2018-01-13T16:07:47.538Z,85.60
2018-01-13T16:10:14.010Z,85.20
2018-01-13T16:12:40.495Z,85.30
2018-01-13T16:15:06.974Z,85.10
2018-01-13T16:17:34.178Z,85.20
2018-01-13T16:20:00.672Z,85.00
2018-01-13T16:22:27.168Z,86.00
2018-01-13T16:24:53.654Z,86.00
2018-01-13T16:27:20.166Z,85.20
2018-01-13T16:29:47.422Z,84.20
2018-01-13T16:32:13.940Z,84.20
2018-01-13T16:34:40.431Z,83.50
2018-01-13T16:37:06.892Z,83.40
2018-01-13T16:39:33.832Z,83.20
2018-01-13T16:42:00.318Z,82.80
2018-01-13T16:44:26.792Z,82.70
2018-01-13T16:46:54.092Z,81.70
2018-01-13T16:49:20.655Z,81.60
2018-01-13T16:51:47.117Z,81.20
2018-01-13T16:54:13.664Z,81.90
2018-01-13T16:56:40.172Z,81.20
2018-01-13T16:59:06.682Z,81.10
2018-01-13T17:01:33.138Z,81.30
2018-01-13T17:03:59.602Z,81.10
2018-01-13T17:06:26.180Z,80.80
2018-01-13T17:08:52.714Z,80.70
2018-01-13T17:11:19.249Z,81.20
2018-01-13T17:13:46.531Z,81.70
2018-01-13T17:16:13.775Z,82.10
2018-01-13T17:18:40.253Z,82.10
2018-01-13T17:21:07.538Z,82.20
2018-01-13T17:23:34.827Z,82.10
2018-01-13T17:26:01.294Z,82.10
2018-01-13T17:28:27.784Z,81.50
2018-01-13T17:30:54.250Z,81.20
2018-01-13T17:33:20.757Z,81.10
2018-01-13T17:35:47.225Z,81.40
2018-01-13T17:38:13.713Z,81.00
2018-01-13T17:40:40.185Z,81.70
2018-01-13T17:43:06.670Z,81.60
2018-01-13T17:45:33.882Z,81.80
2018-01-13T17:48:01.126Z,81.70
2018-01-13T17:50:27.646Z,81.70
2018-01-13T17:52:54.321Z,81.70
2018-01-13T17:55:21.564Z,82.50
2018-01-13T17:57:48.071Z,82.40
2018-01-13T18:00:14.582Z,82.60
2018-01-13T18:02:41.074Z,82.10
2018-01-13T18:05:08.339Z,81.00
2018-01-13T18:07:35.582Z,81.00
2018-01-13T18:10:02.099Z,80.90
2018-01-13T18:12:28.592Z,81.30
2018-01-13T18:14:55.112Z,81.40
2018-01-13T18:17:21.575Z,81.90
2018-01-13T18:19:48.043Z,82.30
2018-01-13T18:22:15.063Z,82.00
2018-01-13T18:24:42.357Z,81.90
2018-01-13T18:27:09.097Z,81.90
2018-01-13T18:29:35.659Z,82.10
2018-01-13T18:32:02.350Z,81.70
2018-01-13T18:34:28.848Z,81.70
2018-01-13T18:36:56.954Z,81.90
2018-01-13T18:39:24.266Z,81.10
2018-01-13T18:41:52.116Z,81.10
2018-01-13T18:44:20.248Z,81.20
2018-01-13T18:46:46.903Z,81.10
2018-01-13T18:49:14.843Z,81.40
2018-01-13T18:51:42.373Z,81.70
2018-01-13T18:54:09.044Z,81.70
2018-01-13T18:56:35.898Z,82.20
2018-01-13T18:59:03.286Z,82.00
2018-01-13T19:01:30.039Z,82.00
2018-01-13T19:03:57.414Z,82.30
2018-01-13T19:06:25.915Z,81.00
2018-01-13T19:08:53.135Z,80.80
2018-01-13T19:11:20.771Z,81.20
2018-01-13T19:13:49.234Z,80.70
2018-01-13T19:16:16.854Z,80.60
2018-01-13T19:18:44.438Z,80.50
2018-01-13T19:21:11.166Z,80.00
2018-01-13T19:23:37.910Z,80.20
2018-01-13T19:26:05.339Z,80.10
2018-01-13T19:28:33.307Z,79.90
2018-01-13T19:30:59.811Z,79.40
2018-01-13T19:33:26.318Z,80.90
2018-01-13T19:35:54.921Z,79.80
2018-01-13T19:38:22.527Z,79.30
2018-01-13T19:40:51.210Z,78.80
2018-01-13T19:43:18.101Z,78.70
2018-01-13T19:45:45.476Z,79.10
2018-01-13T19:48:12.119Z,79.90
2018-01-13T19:50:38.903Z,79.80
2018-01-13T19:53:06.239Z,79.80
2018-01-13T19:55:33.961Z,79.80
2018-01-13T19:58:02.468Z,79.90
2018-01-13T20:00:29.022Z,79.80
2018-01-13T20:02:56.500Z,79.90
2018-01-13T20:05:23.366Z,79.90
2018-01-13T20:07:49.829Z,79.90
2018-01-13T20:10:17.097Z,79.90
2018-01-13T20:12:44.881Z,79.30
2018-01-13T20:15:13.537Z,79.20
2018-01-13T20:17:41.885Z,79.20
2018-01-13T20:20:09.314Z,79.30
2018-01-13T20:22:40.088Z,79.30
2018-01-13T20:25:07.062Z,79.20
2018-01-13T20:27:33.706Z,79.50
2018-01-13T20:30:00.803Z,78.90
2018-01-13T20:32:28.303Z,78.90
2018-01-13T20:34:54.895Z,78.90
2018-01-13T20:37:21.347Z,79.10
2018-01-13T20:39:48.040Z,79.10
2018-01-13T20:42:14.551Z,79.20
2018-01-13T20:44:42.284Z,79.50
2018-01-13T20:47:08.936Z,79.50
2018-01-13T20:49:37.356Z,78.70
2018-01-13T20:52:03.931Z,78.60
2018-01-13T20:54:31.265Z,78.10
2018-01-13T20:56:58.497Z,78.20
2018-01-13T20:59:25.061Z,78.20
2018-01-13T21:01:51.661Z,78.30
2018-01-13T21:04:18.118Z,77.90
2018-01-13T21:06:45.542Z,77.20
2018-01-13T21:09:12.888Z,77.20
2018-01-13T21:11:40.252Z,77.60
2018-01-13T21:14:07.850Z,77.30
2018-01-13T21:16:34.323Z,76.60
2018-01-13T21:19:01.674Z,76.40
2018-01-13T21:21:28.541Z,76.00
2018-01-13T21:23:55.506Z,76.00
2018-01-13T21:26:23.193Z,76.60
2018-01-13T21:28:49.731Z,77.20
2018-01-13T21:31:17.017Z,77.80
2018-01-13T21:33:43.555Z,78.30
2018-01-13T21:36:11.370Z,78.60
2018-01-13T21:38:37.914Z,78.50
2018-01-13T21:41:05.271Z,79.40
2018-01-13T21:43:31.771Z,79.40
2018-01-13T21:45:59.114Z,80.50
2018-01-13T21:48:25.636Z,80.50
2018-01-13T21:50:52.168Z,80.90
2018-01-13T21:53:19.466Z,81.70
2018-01-13T21:55:46.009Z,81.70
2018-01-13T21:58:13.928Z,81.90
2018-01-13T22:00:40.609Z,81.90
2018-01-13T22:03:07.165Z,82.20
2018-01-13T22:05:34.617Z,83.20
2018-01-13T22:08:01.106Z,83.20
2018-01-13T22:10:27.897Z,83.80
2018-01-13T22:12:54.782Z,83.70
2018-01-13T22:15:23.262Z,83.20
2018-01-13T22:17:49.833Z,83.10
2018-01-13T22:20:16.355Z,83.30
2018-01-13T22:22:42.953Z,83.50
2018-01-13T22:25:09.652Z,83.90
2018-01-13T22:27:36.184Z,84.10
2018-01-13T22:30:02.772Z,84.40
2018-01-13T22:32:29.261Z,84.60
2018-01-13T22:34:56.025Z,85.00
2018-01-13T22:37:22.523Z,85.30
2018-01-13T22:39:49.481Z,85.50
2018-01-13T22:42:16.853Z,85.80
2018-01-13T22:44:44.521Z,86.10
2018-01-13T22:47:11.145Z,86.40
2018-01-13T22:49:39.585Z,86.80
2018-01-13T22:52:07.054Z,86.80
2018-01-13T22:54:34.745Z,86.80
2018-01-13T22:57:01.234Z,86.90
2018-01-13T22:59:27.799Z,87.10
2018-01-13T23:01:55.043Z,86.80
2018-01-13T23:04:21.615Z,86.80
2018-01-13T23:06:48.843Z,86.40
2018-01-13T23:09:15.325Z,86.20
2018-01-13T23:11:42.423Z,86.10
2018-01-13T23:14:08.952Z,86.00
2018-01-13T23:16:35.782Z,85.90
2018-01-13T23:19:02.356Z,85.60
2018-01-13T23:21:29.631Z,85.90
2018-01-13T23:23:57.900Z,85.70
2018-01-13T23:26:24.467Z,85.60
2018-01-13T23:28:51.503Z,85.50
2018-01-13T23:31:17.960Z,85.90
2018-01-13T23:33:44.591Z,86.20
2018-01-13T23:36:11.744Z,86.20
2018-01-13T23:38:39.172Z,86.20
2018-01-13T23:41:05.645Z,86.20
2018-01-13T23:43:32.131Z,86.10
2018-01-13T23:45:58.980Z,86.40
2018-01-13T23:48:25.609Z,86.70
2018-01-13T23:50:52.889Z,87.10
2018-01-13T23:53:19.446Z,87.60
2018-01-13T23:55:46.910Z,87.80
2018-01-13T23:58:14.117Z,88.20
